sensor_id;sensor_type;location;lat;lon;timestamp;temperature;humidity
792;DHT22;379;49.022;12.148;2024-01-15T00:00:57;-5.20;99.90
792;DHT22;379;49.022;12.148;2024-01-15T00:03:24;-5.30;99.90
792;DHT22;379;49.022;12.148;2024-01-15T00:05:50;-5.30;99.90
792;DHT22;379;49.022;12.148;2024-01-15T00:08:17;-5.30;99.90
792;DHT22;379;49.022;12.148;2024-01-15T00:10:44;-5.40;99.90
792;DHT22;379;49.022;12.148;2024-01-15T00:13:11;-5.30;99.90
792;DHT22;379;49.022;12.148;2024-01-15T00:15:37;-5.10;99.90
792;DHT22;379;49.022;12.148;2024-01-15T00:18:06;-4.90;99.90
792;DHT22;379;49.022;12.148;2024-01-15T00:20:33;-4.80;99.90
792;DHT22;379;49.022;12.148;2024-01-15T00:22:59;-4.70;99.90
792;DHT22;379;49.022;12.148;2024-01-15T00:25:26;-4.60;99.90
792;DHT22;379;49.022;12.148;2024-01-15T00:27:53;-4.50;99.90
792;DHT22;379;49.022;12.148;2024-01-15T00:30:19;-4.30;99.90
792;DHT22;379;49.022;12.148;2024-01-15T00:32:46;-4.20;99.90
792;DHT22;379;49.022;12.148;2024-01-15T00:35:14;-4.00;99.90
792;DHT22;379;49.022;12.148;2024-01-15T00:37:41;-3.90;99.90
792;DHT22;379;49.022;12.148;2024-01-15T00:40:09;-3.80;99.90
792;DHT22;379;49.022;12.148;2024-01-15T00:42:35;-3.70;99.90
792;DHT22;379;49.022;12.148;2024-01-15T00:45:02;-3.50;99.90
792;DHT22;379;49.022;12.148;2024-01-15T00:47:30;-3.50;99.90
792;DHT22;379;49.022;12.148;2024-01-15T00:49:57;-3.50;99.90
792;DHT22;379;49.022;12.148;2024-01-15T00:52:25;-3.40;99.90
792;DHT22;379;49.022;12.148;2024-01-15T00:54:52;-3.40;99.90
792;DHT22;379;49.022;12.148;2024-01-15T00:57:19;-3.40;99.90
792;DHT22;379;49.022;12.148;2024-01-15T00:59:46;-3.30;99.90
792;DHT22;379;49.022;12.148;2024-01-15T01:02:13;-3.30;99.90
792;DHT22;379;49.022;12.148;2024-01-15T01:04:40;-3.30;99.90
792;DHT22;379;49.022;12.148;2024-01-15T01:07:07;-3.40;99.90
792;DHT22;379;49.022;12.148;2024-01-15T01:09:35;-3.40;99.90
792;DHT22;379;49.022;12.148;2024-01-15T01:12:02;-3.40;99.90
792;DHT22;379;49.022;12.148;2024-01-15T01:14:29;-3.40;99.90
792;DHT22;379;49.022;12.148;2024-01-15T01:16:55;-3.40;99.90
792;DHT22;379;49.022;12.148;2024-01-15T01:19:22;-3.40;99.90
792;DHT22;379;49.022;12.148;2024-01-15T01:21:50;-3.40;99.90
792;DHT22;379;49.022;12.148;2024-01-15T01:24:17;-3.40;99.90
792;DHT22;379;49.022;12.148;2024-01-15T01:26:45;-3.40;99.90
792;DHT22;379;49.022;12.148;2024-01-15T01:29:12;-3.30;99.90
792;DHT22;379;49.022;12.148;2024-01-15T01:31:42;-3.30;99.90
792;DHT22;379;49.022;12.148;2024-01-15T01:34:09;-3.30;99.90
792;DHT22;379;49.022;12.148;2024-01-15T01:36:36;-3.20;99.90
792;DHT22;379;49.022;12.148;2024-01-15T01:39:03;-3.20;99.90
792;DHT22;379;49.022;12.148;2024-01-15T01:41:29;-3.20;99.90
792;DHT22;379;49.022;12.148;2024-01-15T01:43:58;-3.20;99.90
792;DHT22;379;49.022;12.148;2024-01-15T01:46:25;-3.20;99.90
792;DHT22;379;49.022;12.148;2024-01-15T01:48:53;-3.10;99.90
792;DHT22;379;49.022;12.148;2024-01-15T01:51:22;-3.10;99.90
792;DHT22;379;49.022;12.148;2024-01-15T01:53:49;-3.10;99.90
792;DHT22;379;49.022;12.148;2024-01-15T01:56:17;-3.00;99.90
792;DHT22;379;49.022;12.148;2024-01-15T01:58:44;-3.10;99.90
792;DHT22;379;49.022;12.148;2024-01-15T02:01:13;-3.10;99.90
792;DHT22;379;49.022;12.148;2024-01-15T02:03:40;-3.00;99.90
792;DHT22;379;49.022;12.148;2024-01-15T02:06:07;-3.10;99.90
792;DHT22;379;49.022;12.148;2024-01-15T02:08:34;-3.00;99.90
792;DHT22;379;49.022;12.148;2024-01-15T02:11:01;-3.00;99.90
792;DHT22;379;49.022;12.148;2024-01-15T02:13:28;-3.00;99.90
792;DHT22;379;49.022;12.148;2024-01-15T02:15:55;-3.00;99.90
792;DHT22;379;49.022;12.148;2024-01-15T02:18:23;-3.00;99.90
792;DHT22;379;49.022;12.148;2024-01-15T02:20:49;-3.00;99.90
792;DHT22;379;49.022;12.148;2024-01-15T02:23:17;-3.00;99.90
792;DHT22;379;49.022;12.148;2024-01-15T02:25:46;-3.00;99.90
792;DHT22;379;49.022;12.148;2024-01-15T02:28:14;-2.90;99.90
792;DHT22;379;49.022;12.148;2024-01-15T02:30:41;-2.80;99.90
792;DHT22;379;49.022;12.148;2024-01-15T02:33:10;-2.80;99.90
792;DHT22;379;49.022;12.148;2024-01-15T02:35:36;-2.80;99.90
792;DHT22;379;49.022;12.148;2024-01-15T02:38:04;-2.80;99.90
792;DHT22;379;49.022;12.148;2024-01-15T02:40:32;-2.80;99.90
792;DHT22;379;49.022;12.148;2024-01-15T02:42:59;-2.80;99.90
792;DHT22;379;49.022;12.148;2024-01-15T02:45:26;-2.80;99.90
792;DHT22;379;49.022;12.148;2024-01-15T02:47:53;-2.80;99.90
792;DHT22;379;49.022;12.148;2024-01-15T02:50:20;-2.70;99.90
792;DHT22;379;49.022;12.148;2024-01-15T02:52:45;-2.70;99.90
792;DHT22;379;49.022;12.148;2024-01-15T02:55:12;-2.70;99.90
792;DHT22;379;49.022;12.148;2024-01-15T02:57:40;-2.70;99.90
792;DHT22;379;49.022;12.148;2024-01-15T03:00:08;-2.70;99.90
792;DHT22;379;49.022;12.148;2024-01-15T03:02:37;-2.60;99.90
792;DHT22;379;49.022;12.148;2024-01-15T03:05:05;-2.60;99.90
792;DHT22;379;49.022;12.148;2024-01-15T03:07:32;-2.70;99.90
792;DHT22;379;49.022;12.148;2024-01-15T03:09:58;-2.70;99.90
792;DHT22;379;49.022;12.148;2024-01-15T03:12:25;-2.60;99.90
792;DHT22;379;49.022;12.148;2024-01-15T03:14:53;-2.60;99.90
792;DHT22;379;49.022;12.148;2024-01-15T03:17:20;-2.60;99.90
792;DHT22;379;49.022;12.148;2024-01-15T03:19:47;-2.60;99.90
792;DHT22;379;49.022;12.148;2024-01-15T03:22:15;-2.50;99.90
792;DHT22;379;49.022;12.148;2024-01-15T03:24:42;-2.50;99.90
792;DHT22;379;49.022;12.148;2024-01-15T03:27:09;-2.50;99.90
792;DHT22;379;49.022;12.148;2024-01-15T03:29:36;-2.50;99.90
792;DHT22;379;49.022;12.148;2024-01-15T03:32:04;-2.50;99.90
792;DHT22;379;49.022;12.148;2024-01-15T03:34:31;-2.50;99.90
792;DHT22;379;49.022;12.148;2024-01-15T03:36:58;-2.50;99.90
792;DHT22;379;49.022;12.148;2024-01-15T03:39:25;-2.40;99.90
792;DHT22;379;49.022;12.148;2024-01-15T03:41:51;-2.40;99.90
792;DHT22;379;49.022;12.148;2024-01-15T03:44:18;-2.40;99.90
792;DHT22;379;49.022;12.148;2024-01-15T03:46:45;-2.40;99.90
792;DHT22;379;49.022;12.148;2024-01-15T03:49:13;-2.40;99.90
792;DHT22;379;49.022;12.148;2024-01-15T03:51:40;-2.30;99.90
792;DHT22;379;49.022;12.148;2024-01-15T03:54:06;-2.30;99.90
792;DHT22;379;49.022;12.148;2024-01-15T03:56:33;-2.30;99.90
792;DHT22;379;49.022;12.148;2024-01-15T03:59:00;-2.20;99.90
792;DHT22;379;49.022;12.148;2024-01-15T04:01:27;-2.20;99.90
792;DHT22;379;49.022;12.148;2024-01-15T04:03:55;-2.20;99.90
792;DHT22;379;49.022;12.148;2024-01-15T04:06:23;-2.20;99.90
792;DHT22;379;49.022;12.148;2024-01-15T04:08:49;-2.20;99.90
792;DHT22;379;49.022;12.148;2024-01-15T04:11:16;-2.10;99.90
792;DHT22;379;49.022;12.148;2024-01-15T04:13:43;-2.10;99.90
792;DHT22;379;49.022;12.148;2024-01-15T04:16:09;-2.10;99.90
792;DHT22;379;49.022;12.148;2024-01-15T04:18:36;-2.10;99.90
792;DHT22;379;49.022;12.148;2024-01-15T04:21:04;-2.20;99.90
792;DHT22;379;49.022;12.148;2024-01-15T04:23:32;-2.20;99.90
792;DHT22;379;49.022;12.148;2024-01-15T04:25:59;-2.30;99.90
792;DHT22;379;49.022;12.148;2024-01-15T04:28:25;-2.30;99.90
792;DHT22;379;49.022;12.148;2024-01-15T04:30:52;-2.30;99.90
792;DHT22;379;49.022;12.148;2024-01-15T04:33:19;-2.20;99.90
792;DHT22;379;49.022;12.148;2024-01-15T04:35:46;-2.10;99.90
792;DHT22;379;49.022;12.148;2024-01-15T04:38:12;-2.10;99.90
792;DHT22;379;49.022;12.148;2024-01-15T04:40:40;-2.00;99.90
792;DHT22;379;49.022;12.148;2024-01-15T04:43:07;-2.00;99.90
792;DHT22;379;49.022;12.148;2024-01-15T04:45:34;-2.00;99.90
792;DHT22;379;49.022;12.148;2024-01-15T04:48:00;-2.00;99.90
792;DHT22;379;49.022;12.148;2024-01-15T04:50:27;-1.90;99.90
792;DHT22;379;49.022;12.148;2024-01-15T04:52:54;-2.00;99.90
792;DHT22;379;49.022;12.148;2024-01-15T04:55:20;-2.00;99.90
792;DHT22;379;49.022;12.148;2024-01-15T04:57:49;-2.00;99.90
792;DHT22;379;49.022;12.148;2024-01-15T05:00:16;-2.00;99.90
792;DHT22;379;49.022;12.148;2024-01-15T05:02:42;-2.00;99.90
792;DHT22;379;49.022;12.148;2024-01-15T05:05:09;-2.00;99.90
792;DHT22;379;49.022;12.148;2024-01-15T05:07:36;-2.10;99.90
792;DHT22;379;49.022;12.148;2024-01-15T05:10:03;-2.10;99.90
792;DHT22;379;49.022;12.148;2024-01-15T05:12:29;-2.10;99.90
792;DHT22;379;49.022;12.148;2024-01-15T05:14:57;-2.10;99.90
792;DHT22;379;49.022;12.148;2024-01-15T05:17:24;-2.10;99.90
792;DHT22;379;49.022;12.148;2024-01-15T05:19:51;-2.10;99.90
792;DHT22;379;49.022;12.148;2024-01-15T05:22:17;-2.10;99.90
792;DHT22;379;49.022;12.148;2024-01-15T05:24:44;-2.10;99.90
792;DHT22;379;49.022;12.148;2024-01-15T05:27:11;-2.10;99.90
792;DHT22;379;49.022;12.148;2024-01-15T05:29:38;-2.00;99.90
792;DHT22;379;49.022;12.148;2024-01-15T05:32:06;-2.00;99.90
792;DHT22;379;49.022;12.148;2024-01-15T05:34:32;-1.90;99.90
792;DHT22;379;49.022;12.148;2024-01-15T05:36:59;-1.90;99.90
792;DHT22;379;49.022;12.148;2024-01-15T05:39:26;-1.90;99.90
792;DHT22;379;49.022;12.148;2024-01-15T05:41:53;-1.90;99.90
792;DHT22;379;49.022;12.148;2024-01-15T05:44:19;-1.90;99.90
792;DHT22;379;49.022;12.148;2024-01-15T05:46:46;-1.90;99.90
792;DHT22;379;49.022;12.148;2024-01-15T05:49:14;-2.00;99.90
792;DHT22;379;49.022;12.148;2024-01-15T05:51:41;-2.00;99.90
792;DHT22;379;49.022;12.148;2024-01-15T05:54:08;-2.00;99.90
792;DHT22;379;49.022;12.148;2024-01-15T05:56:34;-2.00;99.90
792;DHT22;379;49.022;12.148;2024-01-15T05:59:02;-2.00;99.90
792;DHT22;379;49.022;12.148;2024-01-15T06:01:28;-1.90;99.90
792;DHT22;379;49.022;12.148;2024-01-15T06:03:55;-1.90;99.90
792;DHT22;379;49.022;12.148;2024-01-15T06:06:23;-1.90;99.90
792;DHT22;379;49.022;12.148;2024-01-15T06:08:50;-1.90;99.90
792;DHT22;379;49.022;12.148;2024-01-15T06:11:17;-1.90;99.90
792;DHT22;379;49.022;12.148;2024-01-15T06:13:43;-1.90;99.90
792;DHT22;379;49.022;12.148;2024-01-15T06:16:14;-1.90;99.90
792;DHT22;379;49.022;12.148;2024-01-15T06:18:42;-1.90;99.90
792;DHT22;379;49.022;12.148;2024-01-15T06:21:08;-1.80;99.90
792;DHT22;379;49.022;12.148;2024-01-15T06:23:37;-1.80;99.90
792;DHT22;379;49.022;12.148;2024-01-15T06:26:04;-1.70;99.90
792;DHT22;379;49.022;12.148;2024-01-15T06:28:31;-1.80;99.90
792;DHT22;379;49.022;12.148;2024-01-15T06:30:58;-1.70;99.90
792;DHT22;379;49.022;12.148;2024-01-15T06:33:25;-1.70;99.90
792;DHT22;379;49.022;12.148;2024-01-15T06:35:51;-1.70;99.90
792;DHT22;379;49.022;12.148;2024-01-15T06:38:18;-1.70;99.90
792;DHT22;379;49.022;12.148;2024-01-15T06:40:46;-1.60;99.90
792;DHT22;379;49.022;12.148;2024-01-15T06:43:14;-1.60;99.90
792;DHT22;379;49.022;12.148;2024-01-15T06:45:41;-1.70;99.90
792;DHT22;379;49.022;12.148;2024-01-15T06:48:08;-1.70;99.90
792;DHT22;379;49.022;12.148;2024-01-15T06:50:35;-1.70;99.90
792;DHT22;379;49.022;12.148;2024-01-15T06:53:01;-1.70;99.90
792;DHT22;379;49.022;12.148;2024-01-15T06:55:28;-1.70;99.90
792;DHT22;379;49.022;12.148;2024-01-15T06:57:56;-1.70;99.90
792;DHT22;379;49.022;12.148;2024-01-15T07:00:23;-1.70;99.90
792;DHT22;379;49.022;12.148;2024-01-15T07:02:50;-1.80;99.90
792;DHT22;379;49.022;12.148;2024-01-15T07:05:17;-1.70;99.90
792;DHT22;379;49.022;12.148;2024-01-15T07:07:44;-1.70;99.90
792;DHT22;379;49.022;12.148;2024-01-15T07:10:11;-1.70;99.90
792;DHT22;379;49.022;12.148;2024-01-15T07:12:38;-1.70;99.90
792;DHT22;379;49.022;12.148;2024-01-15T07:15:07;-1.60;99.90
792;DHT22;379;49.022;12.148;2024-01-15T07:17:34;-1.60;99.90
792;DHT22;379;49.022;12.148;2024-01-15T07:20:00;-1.70;99.90
792;DHT22;379;49.022;12.148;2024-01-15T07:22:27;-1.60;99.90
792;DHT22;379;49.022;12.148;2024-01-15T07:24:55;-1.60;99.90
792;DHT22;379;49.022;12.148;2024-01-15T07:27:21;-1.50;99.90
792;DHT22;379;49.022;12.148;2024-01-15T07:29:48;-1.50;99.90
792;DHT22;379;49.022;12.148;2024-01-15T07:32:16;-1.50;99.90
792;DHT22;379;49.022;12.148;2024-01-15T07:34:43;-1.40;99.90
792;DHT22;379;49.022;12.148;2024-01-15T07:37:10;-1.40;99.90
792;DHT22;379;49.022;12.148;2024-01-15T07:39:37;-1.30;99.90
792;DHT22;379;49.022;12.148;2024-01-15T07:42:04;-1.20;99.90
792;DHT22;379;49.022;12.148;2024-01-15T07:44:31;-1.20;99.90
792;DHT22;379;49.022;12.148;2024-01-15T07:46:57;-1.00;99.90
792;DHT22;379;49.022;12.148;2024-01-15T07:49:25;-0.70;99.90
792;DHT22;379;49.022;12.148;2024-01-15T07:51:52;-0.60;99.90
792;DHT22;379;49.022;12.148;2024-01-15T07:54:19;-0.60;99.90
792;DHT22;379;49.022;12.148;2024-01-15T07:56:56;-0.60;99.90
792;DHT22;379;49.022;12.148;2024-01-15T07:59:23;-0.60;99.90
792;DHT22;379;49.022;12.148;2024-01-15T08:01:50;-0.60;99.90
792;DHT22;379;49.022;12.148;2024-01-15T08:04:17;-0.60;99.90
792;DHT22;379;49.022;12.148;2024-01-15T08:06:45;-0.60;99.90
792;DHT22;379;49.022;12.148;2024-01-15T08:09:12;-0.60;99.90
792;DHT22;379;49.022;12.148;2024-01-15T08:11:39;-0.60;99.90
792;DHT22;379;49.022;12.148;2024-01-15T08:14:07;-0.50;99.90
792;DHT22;379;49.022;12.148;2024-01-15T08:16:33;-0.50;99.90
792;DHT22;379;49.022;12.148;2024-01-15T08:19:00;-0.50;99.90
792;DHT22;379;49.022;12.148;2024-01-15T08:21:27;-0.40;99.90
792;DHT22;379;49.022;12.148;2024-01-15T08:23:56;-0.40;99.90
792;DHT22;379;49.022;12.148;2024-01-15T08:26:23;-0.40;99.90
792;DHT22;379;49.022;12.148;2024-01-15T08:28:50;-0.30;99.90
792;DHT22;379;49.022;12.148;2024-01-15T08:31:17;-0.30;99.90
792;DHT22;379;49.022;12.148;2024-01-15T08:33:43;-0.20;99.90
792;DHT22;379;49.022;12.148;2024-01-15T08:36:10;-0.20;99.90
792;DHT22;379;49.022;12.148;2024-01-15T08:38:37;-0.10;99.90
792;DHT22;379;49.022;12.148;2024-01-15T08:41:05;0.00;99.90
792;DHT22;379;49.022;12.148;2024-01-15T08:43:33;0.00;99.90
792;DHT22;379;49.022;12.148;2024-01-15T08:46:00;0.10;99.90
792;DHT22;379;49.022;12.148;2024-01-15T08:48:27;0.20;99.90
792;DHT22;379;49.022;12.148;2024-01-15T08:50:54;0.20;99.90
792;DHT22;379;49.022;12.148;2024-01-15T08:53:22;0.30;99.90
792;DHT22;379;49.022;12.148;2024-01-15T08:55:48;0.30;99.90
792;DHT22;379;49.022;12.148;2024-01-15T08:58:17;0.40;99.90
792;DHT22;379;49.022;12.148;2024-01-15T09:00:44;0.40;99.90
792;DHT22;379;49.022;12.148;2024-01-15T09:03:11;0.50;99.90
792;DHT22;379;49.022;12.148;2024-01-15T09:05:38;0.60;99.90
792;DHT22;379;49.022;12.148;2024-01-15T09:08:06;0.60;99.90
792;DHT22;379;49.022;12.148;2024-01-15T09:10:33;0.70;99.90
792;DHT22;379;49.022;12.148;2024-01-15T09:12:59;0.70;99.90
792;DHT22;379;49.022;12.148;2024-01-15T09:15:27;0.70;99.90
792;DHT22;379;49.022;12.148;2024-01-15T09:17:54;0.80;99.90
792;DHT22;379;49.022;12.148;2024-01-15T09:20:22;0.80;99.90
792;DHT22;379;49.022;12.148;2024-01-15T09:22:49;0.90;99.90
792;DHT22;379;49.022;12.148;2024-01-15T09:25:16;0.90;99.90
792;DHT22;379;49.022;12.148;2024-01-15T09:27:43;1.00;99.90
792;DHT22;379;49.022;12.148;2024-01-15T09:30:11;1.00;99.90
792;DHT22;379;49.022;12.148;2024-01-15T09:32:39;1.00;99.90
792;DHT22;379;49.022;12.148;2024-01-15T09:35:06;1.10;99.90
792;DHT22;379;49.022;12.148;2024-01-15T09:37:33;1.10;99.90
792;DHT22;379;49.022;12.148;2024-01-15T09:40:00;1.00;99.90
792;DHT22;379;49.022;12.148;2024-01-15T09:42:28;1.00;99.90
792;DHT22;379;49.022;12.148;2024-01-15T09:44:55;0.90;99.90
792;DHT22;379;49.022;12.148;2024-01-15T09:47:22;0.90;99.90
792;DHT22;379;49.022;12.148;2024-01-15T09:49:51;0.80;99.90
792;DHT22;379;49.022;12.148;2024-01-15T09:52:19;0.90;99.90
792;DHT22;379;49.022;12.148;2024-01-15T09:54:46;0.90;99.90
792;DHT22;379;49.022;12.148;2024-01-15T09:57:13;1.00;99.90
792;DHT22;379;49.022;12.148;2024-01-15T09:59:41;1.00;99.90
792;DHT22;379;49.022;12.148;2024-01-15T10:02:09;1.10;99.90
792;DHT22;379;49.022;12.148;2024-01-15T10:04:38;1.10;99.90
792;DHT22;379;49.022;12.148;2024-01-15T10:07:08;1.30;99.90
792;DHT22;379;49.022;12.148;2024-01-15T10:09:35;1.40;99.90
792;DHT22;379;49.022;12.148;2024-01-15T10:12:02;1.60;99.90
792;DHT22;379;49.022;12.148;2024-01-15T10:14:30;1.60;99.90
792;DHT22;379;49.022;12.148;2024-01-15T10:16:58;1.50;99.90
792;DHT22;379;49.022;12.148;2024-01-15T10:19:24;1.40;99.90
792;DHT22;379;49.022;12.148;2024-01-15T10:21:51;1.40;99.90
792;DHT22;379;49.022;12.148;2024-01-15T10:24:19;1.30;99.90
792;DHT22;379;49.022;12.148;2024-01-15T10:26:46;1.30;99.90
792;DHT22;379;49.022;12.148;2024-01-15T10:29:14;1.40;99.90
792;DHT22;379;49.022;12.148;2024-01-15T10:31:41;1.40;99.90
792;DHT22;379;49.022;12.148;2024-01-15T10:34:11;1.50;99.90
792;DHT22;379;49.022;12.148;2024-01-15T10:36:40;1.50;99.90
792;DHT22;379;49.022;12.148;2024-01-15T10:39:07;1.40;99.90
792;DHT22;379;49.022;12.148;2024-01-15T10:41:35;1.40;99.90
792;DHT22;379;49.022;12.148;2024-01-15T10:44:02;1.30;99.90
792;DHT22;379;49.022;12.148;2024-01-15T10:46:30;1.30;99.90
792;DHT22;379;49.022;12.148;2024-01-15T10:48:57;1.30;99.90
792;DHT22;379;49.022;12.148;2024-01-15T10:51:24;1.40;99.90
792;DHT22;379;49.022;12.148;2024-01-15T10:53:52;1.50;99.90
792;DHT22;379;49.022;12.148;2024-01-15T10:56:19;1.50;99.90
792;DHT22;379;49.022;12.148;2024-01-15T10:58:50;1.60;99.90
792;DHT22;379;49.022;12.148;2024-01-15T11:01:17;1.80;99.90
792;DHT22;379;49.022;12.148;2024-01-15T11:03:45;1.90;99.90
792;DHT22;379;49.022;12.148;2024-01-15T11:06:19;2.00;99.90
792;DHT22;379;49.022;12.148;2024-01-15T11:08:48;2.10;99.90
792;DHT22;379;49.022;12.148;2024-01-15T11:11:16;2.30;99.90
792;DHT22;379;49.022;12.148;2024-01-15T11:13:43;2.50;99.90
792;DHT22;379;49.022;12.148;2024-01-15T11:16:11;2.60;99.90
792;DHT22;379;49.022;12.148;2024-01-15T11:18:40;2.60;99.90
792;DHT22;379;49.022;12.148;2024-01-15T11:21:25;2.60;99.90
792;DHT22;379;49.022;12.148;2024-01-15T11:23:54;2.70;99.90
792;DHT22;379;49.022;12.148;2024-01-15T11:26:34;2.70;99.90
792;DHT22;379;49.022;12.148;2024-01-15T11:29:02;2.60;99.90
792;DHT22;379;49.022;12.148;2024-01-15T11:31:57;2.50;99.90
792;DHT22;379;49.022;12.148;2024-01-15T11:34:52;2.30;99.90
792;DHT22;379;49.022;12.148;2024-01-15T11:37:20;2.10;99.90
792;DHT22;379;49.022;12.148;2024-01-15T11:39:51;2.00;99.90
792;DHT22;379;49.022;12.148;2024-01-15T11:42:19;1.90;99.90
792;DHT22;379;49.022;12.148;2024-01-15T11:44:47;1.80;99.90
792;DHT22;379;49.022;12.148;2024-01-15T11:47:15;1.70;99.90
792;DHT22;379;49.022;12.148;2024-01-15T11:50:03;1.50;99.90
792;DHT22;379;49.022;12.148;2024-01-15T11:52:35;1.40;99.90
792;DHT22;379;49.022;12.148;2024-01-15T11:55:10;1.40;99.90
792;DHT22;379;49.022;12.148;2024-01-15T11:57:41;1.40;99.90
792;DHT22;379;49.022;12.148;2024-01-15T12:00:10;1.40;99.90
792;DHT22;379;49.022;12.148;2024-01-15T12:02:39;1.40;99.90
792;DHT22;379;49.022;12.148;2024-01-15T12:05:07;1.30;99.90
792;DHT22;379;49.022;12.148;2024-01-15T12:07:34;1.30;99.90
792;DHT22;379;49.022;12.148;2024-01-15T12:10:01;1.30;99.90
792;DHT22;379;49.022;12.148;2024-01-15T12:12:35;1.30;99.90
792;DHT22;379;49.022;12.148;2024-01-15T12:15:04;1.30;99.90
792;DHT22;379;49.022;12.148;2024-01-15T12:17:31;1.30;99.90
792;DHT22;379;49.022;12.148;2024-01-15T12:19:59;1.30;99.90
792;DHT22;379;49.022;12.148;2024-01-15T12:22:26;1.30;99.90
792;DHT22;379;49.022;12.148;2024-01-15T12:24:54;1.40;99.90
792;DHT22;379;49.022;12.148;2024-01-15T12:27:21;1.40;99.90
792;DHT22;379;49.022;12.148;2024-01-15T12:29:48;1.50;99.90
792;DHT22;379;49.022;12.148;2024-01-15T12:32:15;1.50;99.90
792;DHT22;379;49.022;12.148;2024-01-15T12:34:43;1.60;99.90
792;DHT22;379;49.022;12.148;2024-01-15T12:37:11;1.60;99.90
792;DHT22;379;49.022;12.148;2024-01-15T12:39:38;1.60;99.90
792;DHT22;379;49.022;12.148;2024-01-15T12:42:05;1.50;99.90
792;DHT22;379;49.022;12.148;2024-01-15T12:44:32;1.50;99.90
792;DHT22;379;49.022;12.148;2024-01-15T12:46:59;1.50;99.90
792;DHT22;379;49.022;12.148;2024-01-15T12:49:26;1.50;99.90
792;DHT22;379;49.022;12.148;2024-01-15T12:51:53;1.50;99.90
792;DHT22;379;49.022;12.148;2024-01-15T12:54:23;1.40;99.90
792;DHT22;379;49.022;12.148;2024-01-15T12:56:50;1.50;99.90
792;DHT22;379;49.022;12.148;2024-01-15T12:59:17;1.40;99.90
792;DHT22;379;49.022;12.148;2024-01-15T13:01:44;1.40;99.90
792;DHT22;379;49.022;12.148;2024-01-15T13:04:11;1.40;99.90
792;DHT22;379;49.022;12.148;2024-01-15T13:06:37;1.40;99.90
792;DHT22;379;49.022;12.148;2024-01-15T13:09:04;1.40;99.90
792;DHT22;379;49.022;12.148;2024-01-15T13:11:33;1.40;99.90
792;DHT22;379;49.022;12.148;2024-01-15T13:14:00;1.40;99.90
792;DHT22;379;49.022;12.148;2024-01-15T13:16:26;1.40;99.90
792;DHT22;379;49.022;12.148;2024-01-15T13:18:54;1.40;99.90
792;DHT22;379;49.022;12.148;2024-01-15T13:21:21;1.30;99.90
792;DHT22;379;49.022;12.148;2024-01-15T13:23:48;1.30;99.90
792;DHT22;379;49.022;12.148;2024-01-15T13:26:15;1.20;99.90
792;DHT22;379;49.022;12.148;2024-01-15T13:28:44;1.20;99.90
792;DHT22;379;49.022;12.148;2024-01-15T13:31:11;1.20;99.90
792;DHT22;379;49.022;12.148;2024-01-15T13:33:38;1.20;99.90
792;DHT22;379;49.022;12.148;2024-01-15T13:36:06;1.20;99.90
792;DHT22;379;49.022;12.148;2024-01-15T13:38:36;1.20;99.90
792;DHT22;379;49.022;12.148;2024-01-15T13:41:04;1.20;99.90
792;DHT22;379;49.022;12.148;2024-01-15T13:43:31;1.20;99.90
792;DHT22;379;49.022;12.148;2024-01-15T13:45:59;1.20;99.90
792;DHT22;379;49.022;12.148;2024-01-15T13:48:30;1.20;99.90
792;DHT22;379;49.022;12.148;2024-01-15T13:50:57;1.20;99.90
792;DHT22;379;49.022;12.148;2024-01-15T13:53:24;1.20;99.90
792;DHT22;379;49.022;12.148;2024-01-15T13:55:51;1.20;99.90
792;DHT22;379;49.022;12.148;2024-01-15T13:58:18;1.10;99.90
792;DHT22;379;49.022;12.148;2024-01-15T14:00:47;1.10;99.90
792;DHT22;379;49.022;12.148;2024-01-15T14:03:15;1.00;99.90
792;DHT22;379;49.022;12.148;2024-01-15T14:05:42;1.00;99.90
792;DHT22;379;49.022;12.148;2024-01-15T14:08:08;0.90;99.90
792;DHT22;379;49.022;12.148;2024-01-15T14:10:35;0.90;99.90
792;DHT22;379;49.022;12.148;2024-01-15T14:13:03;0.80;99.90
792;DHT22;379;49.022;12.148;2024-01-15T14:15:29;0.80;99.90
792;DHT22;379;49.022;12.148;2024-01-15T14:17:56;0.70;99.90
792;DHT22;379;49.022;12.148;2024-01-15T14:20:25;0.60;99.90
792;DHT22;379;49.022;12.148;2024-01-15T14:22:51;0.50;99.90
792;DHT22;379;49.022;12.148;2024-01-15T14:25:18;0.50;99.90
792;DHT22;379;49.022;12.148;2024-01-15T14:27:45;0.40;99.90
792;DHT22;379;49.022;12.148;2024-01-15T14:30:13;0.40;99.90
792;DHT22;379;49.022;12.148;2024-01-15T14:32:41;0.40;99.90
792;DHT22;379;49.022;12.148;2024-01-15T14:35:08;0.30;99.90
792;DHT22;379;49.022;12.148;2024-01-15T14:37:37;0.30;99.90
792;DHT22;379;49.022;12.148;2024-01-15T14:40:04;0.20;99.90
792;DHT22;379;49.022;12.148;2024-01-15T14:42:33;0.20;99.90
792;DHT22;379;49.022;12.148;2024-01-15T14:45:00;0.10;99.90
792;DHT22;379;49.022;12.148;2024-01-15T14:47:28;0.10;99.90
792;DHT22;379;49.022;12.148;2024-01-15T14:49:55;0.10;99.90
792;DHT22;379;49.022;12.148;2024-01-15T14:52:23;0.10;99.90
792;DHT22;379;49.022;12.148;2024-01-15T14:54:51;0.10;99.90
792;DHT22;379;49.022;12.148;2024-01-15T14:57:18;0.10;99.90
792;DHT22;379;49.022;12.148;2024-01-15T14:59:44;0.10;99.90
792;DHT22;379;49.022;12.148;2024-01-15T15:02:11;0.10;99.90
792;DHT22;379;49.022;12.148;2024-01-15T15:04:39;0.10;99.90
792;DHT22;379;49.022;12.148;2024-01-15T15:07:07;0.10;99.90
792;DHT22;379;49.022;12.148;2024-01-15T15:09:33;0.10;99.90
792;DHT22;379;49.022;12.148;2024-01-15T15:12:05;0.10;99.90
792;DHT22;379;49.022;12.148;2024-01-15T15:14:32;0.00;99.90
792;DHT22;379;49.022;12.148;2024-01-15T15:17:03;0.10;99.90
792;DHT22;379;49.022;12.148;2024-01-15T15:19:30;0.00;99.90
792;DHT22;379;49.022;12.148;2024-01-15T15:21:57;0.00;99.90
792;DHT22;379;49.022;12.148;2024-01-15T15:24:24;0.00;99.90
792;DHT22;379;49.022;12.148;2024-01-15T15:26:51;0.00;99.90
792;DHT22;379;49.022;12.148;2024-01-15T15:29:19;0.00;99.90
792;DHT22;379;49.022;12.148;2024-01-15T15:31:46;0.00;99.90
792;DHT22;379;49.022;12.148;2024-01-15T15:34:14;-0.10;99.90
792;DHT22;379;49.022;12.148;2024-01-15T15:36:42;-0.10;99.90
792;DHT22;379;49.022;12.148;2024-01-15T15:39:08;-0.10;99.90
792;DHT22;379;49.022;12.148;2024-01-15T15:41:35;-0.10;99.90
792;DHT22;379;49.022;12.148;2024-01-15T15:44:03;-0.10;99.90
792;DHT22;379;49.022;12.148;2024-01-15T15:46:31;-0.10;99.90
792;DHT22;379;49.022;12.148;2024-01-15T15:48:58;-0.10;99.90
792;DHT22;379;49.022;12.148;2024-01-15T15:51:25;-0.20;99.90
792;DHT22;379;49.022;12.148;2024-01-15T15:53:51;-0.20;99.90
792;DHT22;379;49.022;12.148;2024-01-15T15:56:18;-0.20;99.90
792;DHT22;379;49.022;12.148;2024-01-15T15:58:45;-0.20;99.90
792;DHT22;379;49.022;12.148;2024-01-15T16:01:12;-0.30;99.90
792;DHT22;379;49.022;12.148;2024-01-15T16:03:40;-0.30;99.90
792;DHT22;379;49.022;12.148;2024-01-15T16:06:06;-0.30;99.90
792;DHT22;379;49.022;12.148;2024-01-15T16:08:33;-0.30;99.90
792;DHT22;379;49.022;12.148;2024-01-15T16:11:00;-0.30;99.90
792;DHT22;379;49.022;12.148;2024-01-15T16:13:26;-0.30;99.90
792;DHT22;379;49.022;12.148;2024-01-15T16:15:53;-0.30;99.90
792;DHT22;379;49.022;12.148;2024-01-15T16:18:20;-0.30;99.90
792;DHT22;379;49.022;12.148;2024-01-15T16:20:48;-0.30;99.90
792;DHT22;379;49.022;12.148;2024-01-15T16:23:15;-0.20;99.90
792;DHT22;379;49.022;12.148;2024-01-15T16:25:41;-0.20;99.90